createdAt,value
2023-10-21T00:00:39.007Z,1.10
2023-10-21T00:03:07.373Z,1.30
2023-10-21T00:05:37.081Z,1.60
2023-10-21T00:08:06.383Z,1.40
2023-10-21T00:10:34.788Z,1.30
2023-10-21T00:13:03.141Z,1.30
2023-10-21T00:15:31.420Z,1.17
2023-10-21T00:17:59.791Z,1.33
2023-10-21T00:20:28.274Z,1.33
2023-10-21T00:22:58.050Z,1.20
2023-10-21T00:25:26.417Z,1.43
2023-10-21T00:27:54.782Z,1.10
2023-10-21T00:30:23.836Z,1.40
2023-10-21T00:32:52.264Z,1.20
2023-10-21T00:35:20.660Z,1.30
2023-10-21T00:37:48.953Z,1.30
2023-10-21T00:40:18.577Z,1.43
2023-10-21T00:42:46.909Z,1.00
2023-10-21T00:45:15.499Z,1.40
2023-10-21T00:47:44.078Z,1.20
2023-10-21T00:50:13.023Z,1.30
2023-10-21T00:52:47.692Z,1.20
2023-10-21T00:55:16.406Z,1.23
2023-10-21T00:57:46.139Z,1.43
2023-10-21T01:00:17.694Z,1.10
2023-10-21T01:02:46.470Z,1.30
2023-10-21T01:05:16.778Z,1.30
2023-10-21T01:07:45.946Z,1.03
2023-10-21T01:10:14.215Z,1.07
2023-10-21T01:12:42.505Z,1.10
2023-10-21T01:15:12.943Z,0.80
2023-10-21T01:17:41.805Z,0.83
2023-10-21T01:20:10.815Z,1.07
2023-10-21T01:22:39.096Z,0.80
2023-10-21T01:25:09.340Z,0.97
2023-10-21T01:27:37.687Z,1.00
2023-10-21T01:30:07.159Z,0.90
2023-10-21T01:32:35.604Z,1.00
2023-10-21T01:35:04.012Z,0.90
2023-10-21T01:37:32.258Z,1.10
2023-10-21T01:40:00.523Z,1.20
2023-10-21T01:42:30.189Z,1.10
2023-10-21T01:44:58.587Z,1.00
2023-10-21T01:47:28.066Z,1.00
2023-10-21T01:49:56.384Z,1.50
2023-10-21T01:52:24.955Z,1.27
2023-10-21T01:54:54.582Z,1.30
2023-10-21T01:57:23.029Z,1.10
2023-10-21T01:59:53.046Z,1.43
2023-10-21T02:02:21.490Z,1.37
2023-10-21T02:04:50.536Z,1.50
2023-10-21T02:07:18.911Z,1.20
2023-10-21T02:09:47.279Z,1.27
2023-10-21T02:12:15.766Z,1.63
2023-10-21T02:14:44.184Z,1.20
2023-10-21T02:17:13.861Z,1.40
2023-10-21T02:19:42.197Z,1.30
2023-10-21T02:22:10.438Z,1.33
2023-10-21T02:24:38.728Z,1.33
2023-10-21T02:27:07.955Z,1.20
2023-10-21T02:29:36.529Z,1.27
2023-10-21T02:32:05.663Z,1.30
2023-10-21T02:34:35.394Z,1.20
2023-10-21T02:37:03.712Z,1.03
2023-10-21T02:39:32.159Z,1.27
2023-10-21T02:42:00.573Z,1.10
2023-10-21T02:44:29.726Z,1.13
2023-10-21T02:46:58.133Z,1.40
2023-10-21T02:49:26.454Z,1.20
2023-10-21T02:51:56.477Z,1.10
2023-10-21T02:54:24.810Z,1.23
2023-10-21T02:56:53.237Z,1.27
2023-10-21T02:59:22.033Z,1.00
2023-10-21T03:01:50.712Z,1.17
2023-10-21T03:04:19.150Z,1.23
2023-10-21T03:06:47.602Z,1.33
2023-10-21T03:09:17.629Z,1.23
2023-10-21T03:11:46.486Z,1.20
2023-10-21T03:14:14.776Z,1.30
2023-10-21T03:16:43.155Z,1.50
2023-10-21T03:19:11.760Z,1.70
2023-10-21T03:21:40.207Z,1.70
2023-10-21T03:24:09.660Z,1.40
2023-10-21T03:26:39.407Z,1.90
2023-10-21T03:29:10.276Z,1.33
2023-10-21T03:31:40.621Z,1.80
2023-10-21T03:34:08.981Z,1.53
2023-10-21T03:36:37.346Z,1.80
2023-10-21T03:39:06.915Z,1.60
2023-10-21T03:41:35.223Z,1.60
2023-10-21T03:44:05.200Z,1.47
2023-10-21T03:46:33.627Z,1.87
2023-10-21T03:49:01.910Z,1.80
2023-10-21T03:51:31.679Z,1.70
2023-10-21T03:54:00.111Z,2.00
2023-10-21T03:56:28.534Z,1.53
2023-10-21T03:58:56.910Z,1.93
2023-10-21T04:01:26.623Z,2.00
2023-10-21T04:03:55.145Z,1.90
2023-10-21T04:06:23.615Z,1.77
2023-10-21T04:08:51.990Z,2.03
2023-10-21T04:11:21.284Z,1.70
2023-10-21T04:13:49.579Z,1.87
2023-10-21T04:16:17.918Z,1.77
2023-10-21T04:18:47.718Z,1.80
2023-10-21T04:21:16.208Z,2.00
2023-10-21T04:23:44.891Z,1.80
2023-10-21T04:26:13.197Z,1.63
2023-10-21T04:28:41.502Z,1.70
2023-10-21T04:31:09.842Z,1.80
2023-10-21T04:33:38.125Z,1.90
2023-10-21T04:36:08.893Z,1.73
2023-10-21T04:38:37.242Z,1.50
2023-10-21T04:41:05.577Z,1.77
2023-10-21T04:43:33.860Z,1.77
2023-10-21T04:46:02.273Z,1.57
2023-10-21T04:48:30.759Z,1.50
2023-10-21T04:50:59.248Z,1.50
2023-10-21T04:53:28.886Z,1.50
2023-10-21T04:55:57.243Z,1.60
2023-10-21T04:58:25.534Z,1.40
2023-10-21T05:00:53.901Z,1.70
2023-10-21T05:03:23.524Z,2.03
2023-10-21T05:05:51.983Z,1.80
2023-10-21T05:08:20.668Z,1.40
2023-10-21T05:10:50.421Z,1.50
2023-10-21T05:13:18.676Z,1.60
2023-10-21T05:15:46.957Z,1.47
2023-10-21T05:18:15.388Z,1.40
2023-10-21T05:20:43.831Z,1.43
2023-10-21T05:23:12.872Z,1.40
2023-10-21T05:25:41.188Z,1.40
2023-10-21T05:28:11.288Z,1.10
2023-10-21T05:30:40.448Z,1.20
2023-10-21T05:33:10.170Z,1.23
2023-10-21T05:35:38.849Z,1.27
2023-10-21T05:38:07.195Z,1.03
2023-10-21T05:40:36.397Z,1.10
2023-10-21T05:43:07.262Z,1.00
2023-10-21T05:45:46.769Z,1.00
2023-10-21T05:48:15.186Z,0.90
2023-10-21T05:50:43.647Z,0.90
2023-10-21T05:53:11.948Z,1.00
2023-10-21T05:55:42.756Z,0.90
2023-10-21T05:58:11.171Z,0.83
2023-10-21T06:00:41.023Z,0.70
2023-10-21T06:03:09.726Z,0.83
2023-10-21T06:05:38.128Z,0.90
2023-10-21T06:08:08.188Z,1.00
2023-10-21T06:10:36.626Z,0.80
2023-10-21T06:13:05.119Z,0.67
2023-10-21T06:15:33.706Z,0.67
2023-10-21T06:18:04.496Z,0.50
2023-10-21T06:20:33.692Z,0.60
2023-10-21T06:23:02.023Z,0.60
2023-10-21T06:25:30.441Z,0.40
2023-10-21T06:28:03.528Z,0.40
2023-10-21T06:30:31.894Z,0.40
2023-10-21T06:33:00.260Z,0.30
2023-10-21T06:35:30.026Z,0.40
2023-10-21T06:37:58.439Z,0.50
2023-10-21T06:40:40.168Z,0.60
2023-10-21T06:43:13.618Z,0.50
2023-10-21T06:45:41.960Z,0.70
2023-10-21T06:48:10.459Z,0.70
2023-10-21T06:50:40.314Z,0.97
2023-10-21T06:53:08.601Z,0.80
2023-10-21T06:55:43.864Z,0.60
2023-10-21T06:58:12.559Z,0.40
2023-10-21T07:00:40.967Z,0.40
2023-10-21T07:03:09.805Z,0.60
2023-10-21T07:05:38.227Z,0.47
2023-10-21T07:08:08.385Z,0.60
2023-10-21T07:10:36.819Z,0.40
2023-10-21T07:13:05.367Z,0.50
2023-10-21T07:15:33.751Z,0.90
2023-10-21T07:18:02.685Z,0.40
2023-10-21T07:20:31.285Z,0.53
2023-10-21T07:22:59.609Z,0.50
2023-10-21T07:25:29.622Z,0.70
2023-10-21T07:27:57.917Z,0.50
2023-10-21T07:30:28.723Z,0.40
2023-10-21T07:32:57.258Z,0.50
2023-10-21T07:35:25.839Z,0.30
2023-10-21T07:37:55.817Z,0.50
2023-10-21T07:40:24.104Z,0.60
2023-10-21T07:42:53.751Z,0.43
2023-10-21T07:45:23.356Z,0.63
2023-10-21T07:47:51.969Z,0.60
2023-10-21T07:50:20.786Z,0.57
2023-10-21T07:52:49.302Z,0.40
2023-10-21T07:55:17.665Z,0.60
2023-10-21T07:57:46.055Z,0.37
2023-10-21T08:00:16.479Z,0.70
2023-10-21T08:02:45.152Z,0.70
2023-10-21T08:05:14.174Z,0.90
2023-10-21T08:07:42.552Z,0.60
2023-10-21T08:10:11.239Z,0.80
2023-10-21T08:12:40.350Z,1.00
2023-10-21T08:15:09.212Z,0.80
2023-10-21T08:17:39.316Z,0.93
2023-10-21T08:20:08.807Z,0.67
2023-10-21T08:22:37.196Z,0.70
2023-10-21T08:25:07.602Z,0.90
2023-10-21T08:27:37.471Z,0.50
2023-10-21T08:30:06.251Z,1.07
2023-10-21T08:32:34.609Z,0.73
2023-10-21T08:35:04.644Z,0.80
2023-10-21T08:37:34.065Z,0.70
2023-10-21T08:40:08.700Z,0.80
2023-10-21T08:43:00.142Z,0.67
2023-10-21T08:45:26.429Z,0.60
2023-10-21T08:47:56.339Z,0.60
2023-10-21T08:50:26.602Z,0.90
2023-10-21T08:52:56.573Z,0.80
2023-10-21T08:55:25.542Z,0.70
2023-10-21T08:57:54.960Z,1.17
2023-10-21T09:00:24.489Z,1.07
2023-10-21T09:02:53.077Z,0.90
2023-10-21T09:05:21.457Z,0.90
2023-10-21T09:07:51.867Z,0.87
2023-10-21T09:10:22.333Z,0.80
2023-10-21T09:12:50.744Z,0.80
2023-10-21T09:15:20.207Z,0.90
2023-10-21T09:17:53.426Z,0.77
2023-10-21T09:20:23.333Z,1.00
2023-10-21T09:22:54.004Z,1.30
2023-10-21T09:25:23.384Z,0.83
2023-10-21T09:27:54.737Z,0.80
2023-10-21T09:30:23.934Z,0.60
2023-10-21T09:32:52.393Z,0.83
2023-10-21T09:35:24.881Z,0.83
2023-10-21T09:37:56.994Z,0.90
2023-10-21T09:40:26.095Z,0.70
2023-10-21T09:42:54.849Z,0.87
2023-10-21T09:45:24.704Z,0.93
2023-10-21T09:47:56.719Z,0.80
2023-10-21T09:50:26.012Z,0.80
2023-10-21T09:52:58.039Z,0.87
2023-10-21T09:55:26.935Z,0.77
2023-10-21T09:57:56.081Z,0.67
2023-10-21T10:00:26.254Z,0.90
2023-10-21T10:02:56.081Z,0.67
2023-10-21T10:05:24.887Z,1.00
2023-10-21T10:07:53.580Z,0.77
2023-10-21T10:10:25.148Z,1.13
2023-10-21T10:12:55.431Z,0.70
2023-10-21T10:15:34.823Z,0.83
2023-10-21T10:18:04.978Z,1.00
2023-10-21T10:20:33.838Z,0.87
2023-10-21T10:23:09.188Z,1.10
2023-10-21T10:25:40.482Z,1.10
2023-10-21T10:28:10.748Z,0.97
2023-10-21T10:30:44.650Z,0.90
2023-10-21T10:33:14.904Z,1.17
2023-10-21T10:35:48.448Z,1.33
2023-10-21T10:38:25.454Z,1.10
2023-10-21T10:40:56.825Z,1.40
2023-10-21T10:43:25.268Z,1.27
2023-10-21T10:45:53.689Z,1.23
2023-10-21T10:48:22.972Z,1.40
2023-10-21T10:50:52.453Z,1.70
2023-10-21T10:53:21.291Z,1.30
2023-10-21T10:55:50.246Z,1.50
2023-10-21T10:58:20.868Z,1.57
2023-10-21T11:00:49.172Z,1.20
2023-10-21T11:03:28.357Z,1.20
2023-10-21T11:05:57.618Z,1.07
2023-10-21T11:08:26.771Z,1.50
2023-10-21T11:11:03.928Z,1.73
2023-10-21T11:13:33.658Z,1.60
2023-10-21T11:16:06.465Z,1.27
2023-10-21T11:18:35.637Z,1.40
2023-10-21T11:21:04.074Z,1.40
2023-10-21T11:23:32.473Z,1.20
2023-10-21T11:26:01.980Z,1.40
2023-10-21T11:28:31.051Z,1.47
2023-10-21T11:31:02.448Z,1.40
2023-10-21T11:33:31.094Z,1.80
2023-10-21T11:36:00.663Z,1.50
2023-10-21T11:38:30.247Z,1.63
2023-10-21T11:41:00.446Z,1.53
2023-10-21T11:43:30.065Z,1.73
2023-10-21T11:45:59.305Z,1.70
2023-10-21T11:48:29.119Z,1.80
2023-10-21T11:50:57.995Z,1.80
2023-10-21T11:53:27.628Z,1.37
2023-10-21T11:56:19.219Z,1.40
2023-10-21T11:59:15.999Z,1.50
2023-10-21T12:02:11.045Z,2.07
2023-10-21T12:04:54.627Z,1.80
2023-10-21T12:07:50.036Z,1.57
2023-10-21T12:10:35.258Z,1.30
2023-10-21T12:13:26.465Z,1.90
2023-10-21T12:19:25.043Z,1.80
2023-10-21T12:22:16.432Z,1.63
2023-10-21T12:25:07.607Z,1.83
2023-10-21T12:27:53.631Z,1.37
2023-10-21T12:30:36.069Z,2.37
2023-10-21T12:33:23.065Z,1.60
2023-10-21T12:36:11.725Z,1.50
2023-10-21T12:38:41.432Z,1.60
2023-10-21T12:41:25.906Z,1.90
2023-10-21T12:43:56.516Z,1.50
2023-10-21T12:46:26.447Z,1.53
2023-10-21T12:48:59.100Z,1.60
2023-10-21T12:51:33.791Z,2.50
2023-10-21T12:54:14.081Z,1.63
2023-10-21T12:56:43.330Z,1.67
2023-10-21T12:59:11.627Z,2.00
2023-10-21T13:01:40.186Z,1.83
2023-10-21T13:04:08.886Z,1.40
2023-10-21T13:06:39.644Z,2.07
2023-10-21T13:09:22.628Z,1.50
2023-10-21T13:11:51.919Z,1.70
2023-10-21T13:14:20.799Z,1.33
2023-10-21T13:16:49.793Z,1.90
2023-10-21T13:19:18.541Z,2.37
2023-10-21T13:21:48.254Z,1.53
2023-10-21T13:24:16.647Z,1.50
2023-10-21T13:26:45.117Z,1.63
2023-10-21T13:29:13.669Z,1.67
2023-10-21T13:31:42.007Z,1.70
2023-10-21T13:34:10.635Z,1.60
2023-10-21T13:36:39.011Z,1.80
2023-10-21T13:39:16.754Z,1.50
2023-10-21T13:41:45.471Z,1.33
2023-10-21T13:44:14.073Z,1.70
2023-10-21T13:46:42.416Z,1.23
2023-10-21T13:49:15.264Z,1.10
2023-10-21T13:51:44.547Z,1.40
2023-10-21T13:54:15.490Z,1.80
2023-10-21T13:56:44.285Z,1.77
2023-10-21T13:59:15.121Z,1.27
2023-10-21T14:01:44.056Z,1.57
2023-10-21T14:04:13.807Z,1.60
2023-10-21T14:06:42.707Z,1.33
2023-10-21T14:09:23.226Z,1.73
2023-10-21T14:11:54.000Z,1.57
2023-10-21T14:14:22.580Z,1.60
2023-10-21T14:16:50.972Z,1.50
2023-10-21T14:19:19.265Z,1.97
2023-10-21T14:21:47.777Z,1.40
2023-10-21T14:24:16.257Z,1.30
2023-10-21T14:26:46.140Z,1.50
2023-10-21T14:29:15.924Z,1.80
2023-10-21T14:31:46.202Z,1.70
2023-10-21T14:34:17.675Z,1.80
2023-10-21T14:36:47.486Z,1.87
2023-10-21T14:39:16.481Z,1.40
2023-10-21T14:41:44.888Z,1.17
2023-10-21T14:44:13.321Z,1.60
2023-10-21T14:46:43.462Z,1.60
2023-10-21T14:49:11.858Z,1.60
2023-10-21T14:51:40.392Z,1.33
2023-10-21T14:54:09.423Z,1.43
2023-10-21T14:56:38.160Z,1.50
2023-10-21T14:59:06.623Z,1.27
2023-10-21T15:01:36.585Z,1.30
2023-10-21T15:04:08.149Z,1.20
2023-10-21T15:06:37.063Z,1.50
2023-10-21T15:09:05.711Z,1.17
2023-10-21T15:11:34.444Z,1.43
2023-10-21T15:14:02.736Z,1.40
2023-10-21T15:16:31.162Z,1.37
2023-10-21T15:18:59.486Z,1.40
2023-10-21T15:21:29.300Z,1.50
2023-10-21T15:23:57.444Z,1.37
2023-10-21T15:26:25.935Z,1.23
2023-10-21T15:28:54.264Z,1.50
2023-10-21T15:31:22.697Z,1.73
2023-10-21T15:33:51.179Z,1.50
2023-10-21T15:36:19.633Z,1.40
2023-10-21T15:38:53.554Z,1.50
2023-10-21T15:41:23.816Z,1.60
2023-10-21T15:43:53.079Z,1.77
2023-10-21T15:46:21.610Z,1.60
2023-10-21T15:48:50.190Z,1.83
2023-10-21T15:51:18.595Z,1.50
2023-10-21T15:53:47.610Z,1.40
2023-10-21T15:56:17.540Z,1.33
2023-10-21T15:58:45.984Z,1.20
2023-10-21T16:01:14.361Z,1.10
2023-10-21T16:03:43.127Z,1.50
2023-10-21T16:06:13.211Z,1.30
2023-10-21T16:08:41.700Z,1.23
2023-10-21T16:11:10.773Z,1.83
2023-10-21T16:13:40.606Z,1.40
2023-10-21T16:16:10.011Z,1.67
2023-10-21T16:18:38.673Z,1.60
2023-10-21T16:21:07.313Z,1.17
2023-10-21T16:23:35.794Z,1.30
2023-10-21T16:26:04.179Z,1.50
2023-10-21T16:28:32.853Z,1.40
2023-10-21T16:31:05.348Z,1.17
2023-10-21T16:33:33.804Z,1.37
2023-10-21T16:36:02.676Z,1.67
2023-10-21T16:38:31.166Z,1.10
2023-10-21T16:40:59.538Z,1.10
2023-10-21T16:43:27.902Z,1.50
2023-10-21T16:45:56.282Z,1.40
2023-10-21T16:48:26.091Z,1.30
2023-10-21T16:50:54.579Z,1.50
2023-10-21T16:53:23.665Z,1.50
2023-10-21T16:55:52.071Z,1.67
2023-10-21T16:58:20.379Z,1.20
2023-10-21T17:00:48.711Z,1.40
2023-10-21T17:03:17.628Z,1.20
2023-10-21T17:05:47.433Z,1.40
2023-10-21T17:08:15.807Z,1.60
2023-10-21T17:10:44.101Z,1.23
2023-10-21T17:13:12.587Z,1.30
2023-10-21T17:15:41.081Z,1.90
2023-10-21T17:18:10.702Z,1.23
2023-10-21T17:20:39.313Z,1.10
2023-10-21T17:23:09.059Z,1.07
2023-10-21T17:25:37.752Z,1.33
2023-10-21T17:28:06.348Z,1.03
2023-10-21T17:30:34.830Z,1.77
2023-10-21T17:33:04.101Z,1.53
2023-10-21T17:35:32.537Z,1.93
2023-10-21T17:38:00.968Z,1.37
2023-10-21T17:40:30.640Z,1.60
2023-10-21T17:42:58.958Z,1.30
2023-10-21T17:45:29.570Z,1.20
2023-10-21T17:47:58.194Z,1.17
2023-10-21T17:50:26.477Z,1.30
2023-10-21T17:52:54.928Z,1.37
2023-10-21T17:55:24.072Z,1.10
2023-10-21T17:57:53.709Z,1.20
2023-10-21T18:00:22.776Z,1.40
2023-10-21T18:02:51.303Z,1.40
2023-10-21T18:05:19.852Z,1.40
2023-10-21T18:07:48.110Z,1.10
2023-10-21T18:10:16.645Z,1.17
2023-10-21T18:12:45.572Z,1.47
2023-10-21T18:15:15.976Z,1.40
2023-10-21T18:17:45.632Z,1.20
2023-10-21T18:20:14.390Z,1.20
2023-10-21T18:22:42.882Z,1.03
2023-10-21T18:25:11.377Z,1.23
2023-10-21T18:27:39.759Z,1.70
2023-10-21T18:30:08.793Z,1.20
2023-10-21T18:32:38.636Z,1.10
2023-10-21T18:35:07.468Z,1.40
2023-10-21T18:37:35.804Z,1.20
2023-10-21T18:40:04.182Z,1.70
2023-10-21T18:42:32.541Z,1.60
2023-10-21T18:45:00.863Z,1.30
2023-10-21T18:47:29.245Z,1.20
2023-10-21T18:49:58.961Z,1.40
2023-10-21T18:52:27.246Z,1.37
2023-10-21T18:54:55.743Z,1.20
2023-10-21T18:57:25.281Z,1.10
2023-10-21T18:59:54.885Z,1.47
2023-10-21T19:02:23.273Z,1.20
2023-10-21T19:04:51.613Z,1.20
2023-10-21T19:07:21.405Z,1.17
2023-10-21T19:09:49.725Z,1.60
2023-10-21T19:12:18.240Z,1.17
2023-10-21T19:14:49.684Z,1.03
2023-10-21T19:17:18.031Z,1.17
2023-10-21T19:19:46.318Z,1.23
2023-10-21T19:22:14.687Z,1.40
2023-10-21T19:24:44.355Z,1.27
2023-10-21T19:27:12.656Z,1.13
2023-10-21T19:29:41.054Z,1.63
2023-10-21T19:32:09.398Z,1.50
2023-10-21T19:34:37.750Z,1.67
2023-10-21T19:37:06.304Z,1.57
2023-10-21T19:39:33.751Z,1.07
2023-10-21T19:42:05.194Z,1.50
2023-10-21T19:44:33.524Z,1.17
2023-10-21T19:47:04.723Z,1.20
2023-10-21T19:49:35.148Z,1.30
2023-10-21T19:52:04.253Z,0.87
2023-10-21T19:54:33.641Z,1.30
2023-10-21T19:57:03.420Z,0.93
2023-10-21T19:59:31.811Z,1.20
2023-10-21T20:02:00.083Z,1.00
2023-10-21T20:04:28.529Z,1.10
2023-10-21T20:06:58.685Z,1.17
2023-10-21T20:09:27.375Z,1.30
2023-10-21T20:11:55.738Z,1.37
2023-10-21T20:14:25.578Z,1.50
2023-10-21T20:16:54.525Z,1.20
2023-10-21T20:19:23.193Z,0.97
2023-10-21T20:21:51.530Z,1.40
2023-10-21T20:24:20.255Z,1.20
2023-10-21T20:26:48.661Z,1.33
2023-10-21T20:29:16.964Z,1.10
2023-10-21T20:31:46.684Z,1.23
2023-10-21T20:34:16.157Z,1.40
2023-10-21T20:36:44.555Z,1.13
2023-10-21T20:39:13.168Z,1.17
2023-10-21T20:41:46.119Z,1.20
2023-10-21T20:44:14.991Z,1.30
2023-10-21T20:46:43.507Z,1.13
2023-10-21T20:49:13.326Z,1.47
2023-10-21T20:51:41.747Z,1.03
2023-10-21T20:54:12.111Z,0.90
2023-10-21T20:56:40.923Z,1.00
2023-10-21T20:59:09.472Z,1.60
2023-10-21T21:01:38.280Z,1.30
2023-10-21T21:04:08.281Z,1.30
2023-10-21T21:06:39.822Z,2.07
2023-10-21T21:09:09.082Z,1.07
2023-10-21T21:11:37.609Z,1.10
2023-10-21T21:14:06.315Z,1.30
2023-10-21T21:16:36.280Z,1.37
2023-10-21T21:19:05.923Z,1.20
2023-10-21T21:21:34.562Z,1.40
2023-10-21T21:24:06.593Z,1.37
2023-10-21T21:26:35.366Z,1.30
2023-10-21T21:29:03.766Z,1.30
2023-10-21T21:31:32.732Z,0.87
2023-10-21T21:34:01.186Z,1.10
2023-10-21T21:36:29.559Z,1.00
2023-10-21T21:38:57.851Z,1.20
2023-10-21T21:41:27.485Z,1.27
2023-10-21T21:43:55.810Z,1.40
2023-10-21T21:46:24.222Z,0.87
2023-10-21T21:48:52.625Z,1.00
2023-10-21T21:51:21.125Z,1.17
2023-10-21T21:53:49.591Z,0.80
2023-10-21T21:56:17.887Z,1.30
2023-10-21T21:58:49.047Z,0.97
2023-10-21T22:01:23.965Z,0.90
2023-10-21T22:03:52.475Z,1.10
2023-10-21T22:06:20.933Z,0.77
2023-10-21T22:08:49.240Z,1.00
2023-10-21T22:11:18.257Z,1.00
2023-10-21T22:13:48.294Z,1.13
2023-10-21T22:16:16.631Z,0.70
2023-10-21T22:18:47.450Z,0.70
2023-10-21T22:21:17.110Z,1.23
2023-10-21T22:23:58.706Z,0.80
2023-10-21T22:26:30.139Z,0.73
2023-10-21T22:29:02.407Z,1.00
2023-10-21T22:31:31.147Z,0.90
2023-10-21T22:33:59.553Z,1.03
2023-10-21T22:36:27.927Z,0.90
2023-10-21T22:38:56.219Z,1.00
2023-10-21T22:41:24.646Z,1.17
2023-10-21T22:43:53.201Z,1.10
2023-10-21T22:46:22.911Z,0.97
2023-10-21T22:48:51.241Z,1.03
2023-10-21T22:51:20.041Z,0.97
2023-10-21T22:53:48.378Z,0.73
2023-10-21T22:56:16.736Z,0.87
2023-10-21T22:58:45.032Z,0.87
2023-10-21T23:01:14.674Z,1.20
2023-10-21T23:03:44.506Z,1.13
2023-10-21T23:06:14.166Z,0.90
2023-10-21T23:08:43.696Z,0.80
2023-10-21T23:11:12.142Z,1.03
2023-10-21T23:13:40.462Z,1.07
2023-10-21T23:16:08.848Z,0.93
2023-10-21T23:18:38.654Z,0.90
2023-10-21T23:21:08.906Z,0.80
2023-10-21T23:23:37.345Z,0.90
2023-10-21T23:26:06.998Z,1.00
2023-10-21T23:28:35.483Z,1.00
2023-10-21T23:31:04.720Z,0.80
2023-10-21T23:33:33.216Z,0.70
2023-10-21T23:36:06.331Z,0.93
2023-10-21T23:38:36.945Z,0.80
2023-10-21T23:41:08.797Z,1.07
2023-10-21T23:43:37.203Z,0.77
2023-10-21T23:46:07.016Z,0.80
2023-10-21T23:48:35.860Z,0.90
2023-10-21T23:51:04.842Z,1.03
2023-10-21T23:53:33.276Z,0.80
2023-10-21T23:56:02.918Z,1.00
2023-10-21T23:58:31.267Z,1.03
